Time;durP1;ratioP1;P1;durP2;ratioP2;P2;SDS_P1;SDS_P2;PMS_P1;PMS_P2;Temp;Humidity;BMP_temperature;BMP_pressure;BME280_temperature;BME280_humidity;BME280_pressure;Samples;Min_cycle;Max_cycle;Signal;HPM_P1;HPM_P2
2023/07/03 09:23:55;;;;;;;22.83;5.32;;;16.00;99.90;;;;;;15549438;22;1339349;-38
2023/07/03 09:30:06;;;;;;;20.52;4.88;;;16.40;99.90;;;;;;15502971;23;20344;-38
2023/07/03 09:36:32;;;;;;;22.67;5.82;;;16.50;99.90;;;;;;15421640;23;20021;-38
2023/07/03 09:42:34;;;;;;;16.10;4.63;;;16.20;99.90;;;;;;15421864;23;20623;-39
2023/07/03 09:48:37;;;;;;;19.42;5.10;;;16.00;99.90;;;;;;15426758;23;20044;-38
2023/07/03 09:54:45;;;;;;;20.93;4.50;;;16.20;99.90;;;;;;15418608;23;20104;-38
2023/07/03 10:00:59;;;;;;;18.30;3.97;;;16.30;99.90;;;;;;15420443;23;20099;-39
2023/07/03 10:07:07;;;;;;;15.73;3.72;;;16.80;99.90;;;;;;15422100;23;20024;-38
2023/07/03 10:13:29;;;;;;;14.82;2.80;;;17.20;99.90;;;;;;15421897;23;20025;-38
2023/07/03 10:19:34;;;;;;;20.23;4.00;;;17.50;99.90;;;;;;15418061;23;20035;-38
2023/07/03 10:25:47;;;;;;;12.15;2.80;;;17.40;99.90;;;;;;15494625;23;20024;-40
2023/07/03 10:31:51;;;;;;;11.07;3.00;;;18.30;99.90;;;;;;15496581;23;20023;-40
2023/07/03 10:38:00;;;;;;;;;;;18.80;99.90;;;;;;15498271;23;20024;-39
2023/07/03 10:44:08;;;;;;;12.18;2.50;;;19.10;99.90;;;;;;15494109;22;19923;-39
2023/07/03 10:50:10;;;;;;;8.25;1.90;;;19.10;99.90;;;;;;15470363;23;20020;-39
2023/07/03 10:56:37;;;;;;;14.63;2.27;;;19.40;99.90;;;;;;15487779;23;20021;-39
2023/07/03 11:02:58;;;;;;;9.43;2.22;;;19.00;99.90;;;;;;15474983;23;20243;-39
2023/07/03 11:09:14;;;;;;;14.30;2.80;;;18.40;99.90;;;;;;15469685;23;20036;-39
2023/07/03 11:15:53;;;;;;;9.20;2.30;;;18.80;99.90;;;;;;15468270;23;20365;-38
2023/07/03 11:21:55;;;;;;;8.43;1.92;;;19.10;99.90;;;;;;15482298;23;20028;-39
2023/07/03 11:28:15;;;;;;;12.77;2.78;;;19.40;99.90;;;;;;15469671;23;20341;-41
2023/07/03 11:34:20;;;;;;;11.98;2.60;;;19.20;99.90;;;;;;15487523;22;20354;-38
2023/07/03 11:40:35;;;;;;;10.20;2.17;;;18.80;99.90;;;;;;15486862;22;20024;-39
2023/07/03 11:46:38;;;;;;;9.30;1.92;;;18.70;99.90;;;;;;15493705;23;20020;-38
2023/07/03 11:52:46;;;;;;;9.20;2.20;;;18.80;99.90;;;;;;15470724;23;20066;-39
2023/07/03 11:59:05;;;;;;;11.50;2.30;;;18.90;99.90;;;;;;15493017;23;20024;-39
2023/07/03 12:05:09;;;;;;;9.70;2.22;;;18.70;99.90;;;;;;15469232;23;20083;-40
2023/07/03 12:11:14;;;;;;;;;;;18.60;99.90;;;;;;15499848;22;20024;-39
2023/07/03 12:17:17;;;;;;;14.32;2.40;;;18.50;99.90;;;;;;15498068;23;19923;-39
2023/07/03 12:23:42;;;;;;;8.00;2.63;;;18.40;99.90;;;;;;15492468;22;20034;-39
2023/07/03 12:29:48;;;;;;;12.57;2.40;;;18.10;99.90;;;;;;15493818;23;20096;-39
2023/07/03 12:35:50;;;;;;;;;;;17.80;99.90;;;;;;15461512;23;20111;-39
2023/07/03 12:41:53;;;;;;;15.40;3.10;;;17.80;99.90;;;;;;15473667;23;19966;-39
2023/07/03 12:48:16;;;;;;;12.65;2.75;;;18.00;99.90;;;;;;15495490;23;20349;-38
2023/07/03 12:54:20;;;;;;;10.77;3.05;;;18.40;99.90;;;;;;15464922;23;20020;-38
2023/07/03 13:00:30;;;;;;;14.05;3.35;;;18.50;99.90;;;;;;15492686;22;20028;-39
2023/07/03 13:06:34;;;;;;;19.48;3.70;;;18.50;99.90;;;;;;15497408;23;20028;-39
2023/07/03 13:12:36;;;;;;;;;;;19.00;99.90;;;;;;15498233;23;20017;-38
2023/07/03 13:18:38;;;;;;;10.55;3.28;;;19.50;99.90;;;;;;15469697;23;20942;-39
2023/07/03 13:24:49;;;;;;;14.48;3.35;;;19.90;99.90;;;;;;15489351;22;20131;-39
2023/07/03 13:31:19;;;;;;;20.02;3.20;;;19.50;99.90;;;;;;15494087;23;20050;-39
2023/07/03 13:37:23;;;;;;;10.60;3.05;;;19.00;99.90;;;;;;15492213;23;20043;-39
2023/07/03 13:43:31;;;;;;;14.13;3.10;;;18.50;99.90;;;;;;15497473;22;20028;-38
2023/07/03 13:49:33;;;;;;;15.85;3.17;;;18.00;99.90;;;;;;15498128;23;20024;-38
2023/07/03 13:55:35;;;;;;;10.73;3.20;;;17.80;99.90;;;;;;15458266;23;20056;-39
2023/07/03 14:01:39;;;;;;;10.65;2.85;;;17.70;99.90;;;;;;15471109;23;20472;-40
2023/07/03 14:07:44;;;;;;;16.10;3.45;;;17.90;99.90;;;;;;15473980;23;20031;-38
2023/07/03 14:13:46;;;;;;;11.85;3.03;;;18.20;99.90;;;;;;15497430;22;20028;-39
2023/07/03 14:19:50;;;;;;;14.40;3.65;;;18.30;99.90;;;;;;15502112;23;20099;-38
2023/07/03 14:25:57;;;;;;;10.35;2.90;;;18.50;99.90;;;;;;15464654;23;20477;-38
2023/07/03 14:31:59;;;;;;;8.70;2.83;;;18.30;99.90;;;;;;15467180;22;20027;-38
2023/07/03 14:38:01;;;;;;;10.82;3.00;;;18.40;99.90;;;;;;15499649;22;20390;-37
2023/07/03 14:44:03;;;;;;;10.75;2.85;;;18.70;99.90;;;;;;15472881;23;20353;-38
2023/07/03 14:50:06;;;;;;;8.13;2.70;;;18.80;99.90;;;;;;15497728;22;20016;-37
2023/07/03 14:56:08;;;;;;;9.53;3.13;;;18.80;99.90;;;;;;15406469;23;20091;-39
2023/07/03 15:02:10;;;;;;;10.95;2.65;;;18.80;99.90;;;;;;15471145;22;20024;-38
2023/07/03 15:08:13;;;;;;;10.20;3.08;;;18.70;99.90;;;;;;15501511;23;20028;-38
2023/07/03 15:14:16;;;;;;;8.23;2.55;;;18.60;99.90;;;;;;15492747;22;20051;-39
2023/07/03 15:20:18;;;;;;;7.70;2.72;;;18.50;99.90;;;;;;15492821;23;20024;-40
2023/07/03 15:26:21;;;;;;;11.25;2.70;;;18.20;99.90;;;;;;15463899;23;20023;-38
2023/07/03 15:32:23;;;;;;;16.25;3.55;;;18.10;99.90;;;;;;15500968;22;20091;-40
2023/07/03 15:38:28;;;;;;;11.25;3.10;;;17.90;99.90;;;;;;15469437;23;20031;-38
2023/07/03 15:44:30;;;;;;;9.93;3.47;;;17.70;99.90;;;;;;15469666;23;20024;-38
2023/07/03 15:50:32;;;;;;;10.75;3.10;;;17.80;99.90;;;;;;15495166;22;20052;-39
2023/07/03 15:56:35;;;;;;;10.02;2.83;;;17.80;99.90;;;;;;15494126;23;20028;-39
2023/07/03 16:02:37;;;;;;;16.73;3.60;;;17.80;99.90;;;;;;15499337;22;20020;-39
2023/07/03 16:08:40;;;;;;;10.73;3.13;;;17.90;99.90;;;;;;15469546;23;20446;-39
2023/07/03 16:14:43;;;;;;;10.67;3.23;;;18.00;99.90;;;;;;15493723;22;20354;-39
2023/07/03 16:20:55;;;;;;;11.52;3.20;;;18.00;99.90;;;;;;15486845;22;20528;-40
2023/07/03 16:26:57;;;;;;;11.50;3.08;;;18.10;99.90;;;;;;15420158;23;20027;-39
2023/07/03 16:32:59;;;;;;;16.95;3.00;;;18.10;99.90;;;;;;15413574;23;20099;-40
2023/07/03 16:39:04;;;;;;;12.27;3.03;;;18.00;99.90;;;;;;15409981;23;20907;-39
2023/07/03 16:45:06;;;;;;;14.95;3.10;;;17.90;99.90;;;;;;15422192;23;20111;-37
2023/07/03 16:51:09;;;;;;;11.75;3.05;;;17.90;99.90;;;;;;15413469;23;20332;-38
2023/07/03 16:57:11;;;;;;;10.60;2.70;;;18.00;99.90;;;;;;15423773;23;20024;-38
2023/07/03 17:03:13;;;;;;;11.43;3.08;;;17.90;99.90;;;;;;15424963;23;20033;-40
2023/07/03 17:09:18;;;;;;;16.33;4.32;;;17.90;99.90;;;;;;15419151;23;20467;-39
2023/07/03 17:15:20;;;;;;;9.98;2.40;;;17.90;99.90;;;;;;15420536;23;20106;-39
2023/07/03 17:21:22;;;;;;;10.05;3.22;;;17.90;99.90;;;;;;15425758;23;20410;-40
2023/07/03 17:27:24;;;;;;;10.23;2.70;;;17.80;99.90;;;;;;15415802;23;20020;-39
2023/07/03 17:33:26;;;;;;;12.93;2.97;;;17.80;99.90;;;;;;15414594;23;20095;-37
2023/07/03 17:39:28;;;;;;;7.93;2.88;;;17.70;99.90;;;;;;15426750;23;20370;-38
2023/07/03 17:45:30;;;;;;;11.52;2.70;;;17.70;99.90;;;;;;15417610;23;20354;-40
2023/07/03 17:51:34;;;;;;;16.60;3.33;;;17.70;99.90;;;;;;15427146;23;20562;-41
2023/07/03 17:57:36;;;;;;;13.82;2.80;;;17.60;99.90;;;;;;15423625;23;20031;-40
2023/07/03 18:03:38;;;;;;;10.00;2.20;;;17.60;99.90;;;;;;15419762;23;20035;-39
2023/07/03 18:09:43;;;;;;;7.25;2.88;;;17.50;99.90;;;;;;15425724;23;20020;-40
2023/07/03 18:15:45;;;;;;;11.38;2.58;;;17.40;99.90;;;;;;15425995;23;20112;-38
2023/07/03 18:21:50;;;;;;;11.43;2.63;;;17.40;99.90;;;;;;15448239;23;20024;-39
2023/07/03 18:27:52;;;;;;;13.52;2.95;;;17.40;99.90;;;;;;15496328;22;20189;-38
2023/07/03 18:33:58;;;;;;;12.00;2.20;;;17.30;99.90;;;;;;15471686;22;20094;-38
2023/07/03 18:40:00;;;;;;;10.13;2.30;;;17.20;99.90;;;;;;15498339;23;20032;-39
2023/07/03 18:46:06;;;;;;;12.85;3.30;;;17.20;99.90;;;;;;15496955;22;20024;-38
2023/07/03 18:52:08;;;;;;;14.07;2.47;;;17.30;99.90;;;;;;15498748;22;20016;-39
2023/07/03 18:58:10;;;;;;;11.40;3.38;;;17.10;99.90;;;;;;15474428;23;20114;-38
2023/07/03 19:04:12;;;;;;;10.60;2.67;;;17.10;99.90;;;;;;15493776;22;20106;-39
2023/07/03 19:10:15;;;;;;;10.15;2.55;;;17.20;99.90;;;;;;15504642;22;20016;-39
2023/07/03 19:16:19;;;;;;;16.92;3.40;;;17.20;99.90;;;;;;15506361;23;20466;-40
2023/07/03 19:22:21;;;;;;;13.18;2.80;;;17.10;99.90;;;;;;15502691;22;20108;-39
2023/07/03 19:28:25;;;;;;;11.65;3.33;;;17.00;99.90;;;;;;15500270;22;20024;-39
2023/07/03 19:34:27;;;;;;;13.55;3.22;;;17.00;99.90;;;;;;15500173;23;20374;-39
2023/07/03 19:40:29;;;;;;;11.00;2.80;;;17.00;99.90;;;;;;15503917;22;20117;-39
2023/07/03 19:46:31;;;;;;;13.60;3.45;;;17.00;99.90;;;;;;15501345;23;20016;-39
2023/07/03 19:52:33;;;;;;;13.80;3.00;;;17.00;99.90;;;;;;15499714;22;20023;-38
2023/07/03 19:58:35;;;;;;;13.65;3.35;;;16.90;99.90;;;;;;15467405;23;20461;-38
2023/07/03 20:04:37;;;;;;;7.45;2.42;;;16.90;99.90;;;;;;15470307;23;20024;-38
2023/07/03 20:10:40;;;;;;;13.43;3.20;;;17.00;99.90;;;;;;15496181;22;20023;-38
2023/07/03 20:16:42;;;;;;;12.02;2.80;;;16.90;99.90;;;;;;15496846;23;20020;-38
2023/07/03 20:22:45;;;;;;;10.15;2.65;;;16.90;99.90;;;;;;15492535;22;20027;-38
2023/07/03 20:28:46;;;;;;;11.70;3.22;;;16.90;99.90;;;;;;15491967;22;20477;-38
2023/07/03 20:34:53;;;;;;;8.60;2.90;;;16.80;99.90;;;;;;15492909;22;20031;-38
2023/07/03 20:41:03;;;;;;;10.68;2.60;;;16.80;99.90;;;;;;15494790;22;20346;-39
2023/07/03 20:47:06;;;;;;;14.35;3.25;;;16.70;99.90;;;;;;15497951;23;20020;-38
2023/07/03 20:53:10;;;;;;;11.35;2.55;;;16.70;99.90;;;;;;15493378;23;20016;-40
2023/07/03 20:59:12;;;;;;;14.27;3.13;;;16.60;99.90;;;;;;15498509;23;20028;-37
2023/07/03 21:05:14;;;;;;;17.00;3.08;;;16.50;99.90;;;;;;15495393;23;20429;-37
2023/07/03 21:11:19;;;;;;;10.27;3.00;;;16.60;99.90;;;;;;15496548;22;20480;-37
2023/07/03 21:17:22;;;;;;;13.50;3.10;;;16.60;99.90;;;;;;15472449;23;20675;-37
2023/07/03 21:23:24;;;;;;;14.00;3.35;;;16.60;99.90;;;;;;15454079;23;20103;-37
2023/07/03 21:29:26;;;;;;;16.30;3.33;;;16.60;99.90;;;;;;15497886;23;20024;-36
2023/07/03 21:35:28;;;;;;;22.55;4.13;;;16.50;99.90;;;;;;15499786;23;20087;-36
2023/07/03 21:41:33;;;;;;;14.50;3.75;;;16.50;99.90;;;;;;15484564;22;20323;-37
2023/07/03 21:47:35;;;;;;;11.65;3.85;;;16.50;99.90;;;;;;15498437;23;20335;-38
2023/07/03 21:53:38;;;;;;;15.43;4.55;;;16.60;99.90;;;;;;15471820;23;20459;-37
2023/07/03 21:59:40;;;;;;;15.73;3.83;;;16.60;99.90;;;;;;15494296;22;20404;-37
2023/07/03 22:05:42;;;;;;;15.05;4.03;;;16.50;99.90;;;;;;15501767;23;20027;-37
2023/07/03 22:11:46;;;;;;;12.30;4.32;;;16.50;99.90;;;;;;15499732;22;20024;-37
2023/07/03 22:17:48;;;;;;;13.50;3.95;;;16.60;99.90;;;;;;15497762;23;20027;-37
2023/07/03 22:23:51;;;;;;;11.18;4.05;;;16.80;99.90;;;;;;15495011;23;20055;-37
2023/07/03 22:29:52;;;;;;;15.15;4.60;;;16.80;99.90;;;;;;15498472;22;20024;-37
2023/07/03 22:35:54;;;;;;;14.30;4.65;;;16.70;99.90;;;;;;15463021;23;20032;-37
2023/07/03 22:41:56;;;;;;;11.95;4.30;;;16.70;99.90;;;;;;15490774;22;20335;-37
2023/07/03 22:47:58;;;;;;;11.63;4.40;;;16.60;99.90;;;;;;15499139;23;20320;-36
2023/07/03 22:54:00;;;;;;;10.38;3.13;;;16.70;99.90;;;;;;15489117;23;20028;-37
2023/07/03 23:00:09;;;;;;;16.13;3.55;;;16.70;99.90;;;;;;15495561;23;20457;-37
2023/07/03 23:06:11;;;;;;;10.32;3.30;;;16.70;99.90;;;;;;15498815;23;20013;-37
2023/07/03 23:12:13;;;;;;;9.43;2.60;;;16.70;99.90;;;;;;15495207;22;20020;-37
2023/07/03 23:18:15;;;;;;;12.15;2.65;;;16.80;99.90;;;;;;15493209;22;20058;-37
2023/07/03 23:24:18;;;;;;;9.77;2.40;;;16.80;99.90;;;;;;15465832;23;20024;-37
2023/07/03 23:30:20;;;;;;;8.32;2.67;;;16.80;99.90;;;;;;15466744;23;20030;-36
2023/07/03 23:36:22;;;;;;;10.82;3.30;;;16.90;99.90;;;;;;15494710;23;20024;-37
2023/07/03 23:42:25;;;;;;;12.23;2.60;;;16.80;99.90;;;;;;15494185;23;20060;-36
2023/07/03 23:48:27;;;;;;;9.73;2.53;;;16.80;99.90;;;;;;15494706;22;20027;-37
2023/07/03 23:54:31;;;;;;;12.30;2.58;;;16.80;99.90;;;;;;15489036;22;20354;-37
